sensor_id;sensor_type;location;lat;lon;timestamp;P1;durP1;ratioP1;P2;durP2;ratioP2
25263;SDS011;13211;51.796;5.808;2023-02-28T00:04:39;16.98;;;6.80;;
25263;SDS011;13211;51.796;5.808;2023-02-28T00:07:07;16.15;;;7.15;;
25263;SDS011;13211;51.796;5.808;2023-02-28T00:09:35;14.50;;;7.57;;
25263;SDS011;13211;51.796;5.808;2023-02-28T00:12:03;13.50;;;6.55;;
25263;SDS011;13211;51.796;5.808;2023-02-28T00:14:41;15.60;;;7.10;;
25263;SDS011;13211;51.796;5.808;2023-02-28T00:17:08;16.88;;;7.18;;
25263;SDS011;13211;51.796;5.808;2023-02-28T00:19:36;17.77;;;7.18;;
25263;SDS011;13211;51.796;5.808;2023-02-28T00:22:03;15.70;;;7.13;;
25263;SDS011;13211;51.796;5.808;2023-02-28T00:24:32;16.83;;;6.78;;
25263;SDS011;13211;51.796;5.808;2023-02-28T00:26:59;12.52;;;7.25;;
25263;SDS011;13211;51.796;5.808;2023-02-28T00:29:28;15.93;;;7.22;;
25263;SDS011;13211;51.796;5.808;2023-02-28T00:31:56;13.60;;;6.40;;
25263;SDS011;13211;51.796;5.808;2023-02-28T00:34:24;13.02;;;6.20;;
25263;SDS011;13211;51.796;5.808;2023-02-28T00:36:52;11.73;;;6.20;;
25263;SDS011;13211;51.796;5.808;2023-02-28T00:39:22;14.25;;;6.60;;
25263;SDS011;13211;51.796;5.808;2023-02-28T00:44:19;12.55;;;6.13;;
25263;SDS011;13211;51.796;5.808;2023-02-28T00:46:48;11.45;;;6.32;;
25263;SDS011;13211;51.796;5.808;2023-02-28T00:49:17;13.73;;;6.40;;
25263;SDS011;13211;51.796;5.808;2023-02-28T00:51:45;11.95;;;6.20;;
25263;SDS011;13211;51.796;5.808;2023-02-28T00:54:13;12.07;;;6.15;;
25263;SDS011;13211;51.796;5.808;2023-02-28T00:56:41;12.00;;;6.15;;
25263;SDS011;13211;51.796;5.808;2023-02-28T00:59:09;12.85;;;6.05;;
25263;SDS011;13211;51.796;5.808;2023-02-28T01:01:38;12.13;;;5.93;;
25263;SDS011;13211;51.796;5.808;2023-02-28T01:04:05;9.65;;;5.70;;
25263;SDS011;13211;51.796;5.808;2023-02-28T01:06:35;13.85;;;6.35;;
25263;SDS011;13211;51.796;5.808;2023-02-28T01:09:04;11.93;;;6.63;;
25263;SDS011;13211;51.796;5.808;2023-02-28T01:11:32;11.25;;;6.65;;
25263;SDS011;13211;51.796;5.808;2023-02-28T01:14:00;13.82;;;6.13;;
25263;SDS011;13211;51.796;5.808;2023-02-28T01:16:28;13.70;;;6.25;;
25263;SDS011;13211;51.796;5.808;2023-02-28T01:18:56;9.93;;;5.70;;
25263;SDS011;13211;51.796;5.808;2023-02-28T01:21:24;11.32;;;6.13;;
25263;SDS011;13211;51.796;5.808;2023-02-28T01:23:53;11.65;;;5.95;;
25263;SDS011;13211;51.796;5.808;2023-02-28T01:28:51;11.55;;;5.65;;
25263;SDS011;13211;51.796;5.808;2023-02-28T01:31:19;9.38;;;5.85;;
25263;SDS011;13211;51.796;5.808;2023-02-28T01:33:48;10.50;;;6.70;;
25263;SDS011;13211;51.796;5.808;2023-02-28T01:36:18;14.48;;;6.00;;
25263;SDS011;13211;51.796;5.808;2023-02-28T01:38:46;12.55;;;6.90;;
25263;SDS011;13211;51.796;5.808;2023-02-28T01:41:17;11.00;;;6.70;;
25263;SDS011;13211;51.796;5.808;2023-02-28T01:46:14;16.98;;;7.55;;
25263;SDS011;13211;51.796;5.808;2023-02-28T01:48:46;14.98;;;7.68;;
25263;SDS011;13211;51.796;5.808;2023-02-28T01:51:33;17.63;;;7.28;;
25263;SDS011;13211;51.796;5.808;2023-02-28T01:54:05;14.05;;;7.85;;
25263;SDS011;13211;51.796;5.808;2023-02-28T01:56:42;14.07;;;7.68;;
25263;SDS011;13211;51.796;5.808;2023-02-28T01:59:12;13.05;;;7.50;;
25263;SDS011;13211;51.796;5.808;2023-02-28T02:01:41;15.70;;;7.70;;
25263;SDS011;13211;51.796;5.808;2023-02-28T02:04:09;14.70;;;7.88;;
25263;SDS011;13211;51.796;5.808;2023-02-28T02:06:42;15.75;;;8.07;;
25263;SDS011;13211;51.796;5.808;2023-02-28T02:09:11;18.50;;;7.40;;
25263;SDS011;13211;51.796;5.808;2023-02-28T02:11:39;14.10;;;7.80;;
25263;SDS011;13211;51.796;5.808;2023-02-28T02:28:03;13.75;;;7.72;;
25263;SDS011;13211;51.796;5.808;2023-02-28T02:36:07;17.13;;;7.88;;
25263;SDS011;13211;51.796;5.808;2023-02-28T02:38:43;16.30;;;7.45;;
25263;SDS011;13211;51.796;5.808;2023-02-28T02:46:43;14.30;;;7.15;;
25263;SDS011;13211;51.796;5.808;2023-02-28T02:49:22;13.35;;;7.13;;
25263;SDS011;13211;51.796;5.808;2023-02-28T02:51:51;12.40;;;6.15;;
25263;SDS011;13211;51.796;5.808;2023-02-28T02:54:22;12.02;;;6.70;;
25263;SDS011;13211;51.796;5.808;2023-02-28T02:56:51;16.48;;;6.80;;
25263;SDS011;13211;51.796;5.808;2023-02-28T02:59:23;11.27;;;6.40;;
25263;SDS011;13211;51.796;5.808;2023-02-28T03:01:53;15.25;;;6.85;;
25263;SDS011;13211;51.796;5.808;2023-02-28T03:04:22;9.30;;;5.38;;
25263;SDS011;13211;51.796;5.808;2023-02-28T03:06:53;12.65;;;5.95;;
25263;SDS011;13211;51.796;5.808;2023-02-28T03:09:22;14.30;;;5.80;;
25263;SDS011;13211;51.796;5.808;2023-02-28T03:11:52;11.90;;;6.13;;
25263;SDS011;13211;51.796;5.808;2023-02-28T03:19:39;10.63;;;5.03;;
25263;SDS011;13211;51.796;5.808;2023-02-28T03:24:51;16.40;;;4.95;;
25263;SDS011;13211;51.796;5.808;2023-02-28T03:27:23;11.30;;;5.57;;
25263;SDS011;13211;51.796;5.808;2023-02-28T03:29:55;11.68;;;4.95;;
25263;SDS011;13211;51.796;5.808;2023-02-28T03:32:25;20.52;;;4.10;;
25263;SDS011;13211;51.796;5.808;2023-02-28T03:34:58;7.88;;;4.28;;
25263;SDS011;13211;51.796;5.808;2023-02-28T03:37:31;11.07;;;4.65;;
25263;SDS011;13211;51.796;5.808;2023-02-28T03:40:05;12.68;;;4.40;;
25263;SDS011;13211;51.796;5.808;2023-02-28T03:42:35;7.07;;;4.05;;
25263;SDS011;13211;51.796;5.808;2023-02-28T03:45:05;10.18;;;4.70;;
25263;SDS011;13211;51.796;5.808;2023-02-28T03:47:38;10.20;;;4.55;;
25263;SDS011;13211;51.796;5.808;2023-02-28T03:52:39;8.35;;;4.28;;
25263;SDS011;13211;51.796;5.808;2023-02-28T03:55:12;12.00;;;4.55;;
25263;SDS011;13211;51.796;5.808;2023-02-28T04:00:38;11.55;;;4.32;;
25263;SDS011;13211;51.796;5.808;2023-02-28T04:03:06;10.17;;;4.33;;
25263;SDS011;13211;51.796;5.808;2023-02-28T04:05:41;9.68;;;4.97;;
25263;SDS011;13211;51.796;5.808;2023-02-28T04:08:12;9.85;;;4.85;;
25263;SDS011;13211;51.796;5.808;2023-02-28T04:10:40;12.02;;;4.95;;
25263;SDS011;13211;51.796;5.808;2023-02-28T04:13:09;11.87;;;5.33;;
25263;SDS011;13211;51.796;5.808;2023-02-28T04:15:37;11.82;;;5.18;;
25263;SDS011;13211;51.796;5.808;2023-02-28T04:18:05;9.57;;;4.53;;
25263;SDS011;13211;51.796;5.808;2023-02-28T04:20:32;8.27;;;5.05;;
25263;SDS011;13211;51.796;5.808;2023-02-28T04:23:00;11.68;;;5.35;;
25263;SDS011;13211;51.796;5.808;2023-02-28T04:25:28;9.07;;;5.03;;
25263;SDS011;13211;51.796;5.808;2023-02-28T04:27:55;9.82;;;5.65;;
25263;SDS011;13211;51.796;5.808;2023-02-28T04:30:24;17.65;;;5.38;;
25263;SDS011;13211;51.796;5.808;2023-02-28T04:32:52;10.85;;;5.75;;
25263;SDS011;13211;51.796;5.808;2023-02-28T04:35:19;7.65;;;5.28;;
25263;SDS011;13211;51.796;5.808;2023-02-28T04:37:47;9.48;;;5.47;;
25263;SDS011;13211;51.796;5.808;2023-02-28T04:40:16;11.93;;;5.50;;
25263;SDS011;13211;51.796;5.808;2023-02-28T04:42:44;9.50;;;5.63;;
25263;SDS011;13211;51.796;5.808;2023-02-28T04:45:11;10.40;;;5.50;;
25263;SDS011;13211;51.796;5.808;2023-02-28T04:47:39;11.68;;;5.13;;
25263;SDS011;13211;51.796;5.808;2023-02-28T04:50:07;10.55;;;4.90;;
25263;SDS011;13211;51.796;5.808;2023-02-28T04:52:35;10.10;;;5.60;;
25263;SDS011;13211;51.796;5.808;2023-02-28T04:55:03;10.50;;;5.22;;
25263;SDS011;13211;51.796;5.808;2023-02-28T04:57:30;14.05;;;6.10;;
25263;SDS011;13211;51.796;5.808;2023-02-28T04:59:58;11.43;;;5.82;;
25263;SDS011;13211;51.796;5.808;2023-02-28T05:02:26;14.88;;;5.85;;
25263;SDS011;13211;51.796;5.808;2023-02-28T05:04:53;13.00;;;6.47;;
25263;SDS011;13211;51.796;5.808;2023-02-28T05:07:22;17.13;;;6.10;;
25263;SDS011;13211;51.796;5.808;2023-02-28T05:09:50;10.50;;;5.82;;
25263;SDS011;13211;51.796;5.808;2023-02-28T05:12:18;11.68;;;5.80;;
25263;SDS011;13211;51.796;5.808;2023-02-28T05:14:47;12.68;;;5.57;;
25263;SDS011;13211;51.796;5.808;2023-02-28T05:17:18;12.50;;;5.90;;
25263;SDS011;13211;51.796;5.808;2023-02-28T05:19:48;8.25;;;5.43;;
25263;SDS011;13211;51.796;5.808;2023-02-28T05:22:17;17.70;;;5.60;;
25263;SDS011;13211;51.796;5.808;2023-02-28T05:24:44;10.07;;;5.43;;
25263;SDS011;13211;51.796;5.808;2023-02-28T05:27:12;12.85;;;5.88;;
25263;SDS011;13211;51.796;5.808;2023-02-28T05:29:40;8.63;;;5.20;;
25263;SDS011;13211;51.796;5.808;2023-02-28T05:32:11;10.65;;;5.45;;
25263;SDS011;13211;51.796;5.808;2023-02-28T05:34:40;12.05;;;5.53;;
25263;SDS011;13211;51.796;5.808;2023-02-28T05:37:12;10.02;;;4.57;;
25263;SDS011;13211;51.796;5.808;2023-02-28T05:39:40;8.52;;;5.15;;
25263;SDS011;13211;51.796;5.808;2023-02-28T05:42:08;14.45;;;6.22;;
25263;SDS011;13211;51.796;5.808;2023-02-28T05:44:36;11.77;;;5.38;;
25263;SDS011;13211;51.796;5.808;2023-02-28T05:47:03;10.30;;;5.38;;
25263;SDS011;13211;51.796;5.808;2023-02-28T05:49:31;10.88;;;5.07;;
25263;SDS011;13211;51.796;5.808;2023-02-28T05:51:59;11.80;;;5.47;;
25263;SDS011;13211;51.796;5.808;2023-02-28T05:54:26;11.02;;;5.15;;
25263;SDS011;13211;51.796;5.808;2023-02-28T05:56:54;8.52;;;5.00;;
25263;SDS011;13211;51.796;5.808;2023-02-28T05:59:25;13.55;;;6.07;;
25263;SDS011;13211;51.796;5.808;2023-02-28T06:01:52;9.30;;;5.05;;
25263;SDS011;13211;51.796;5.808;2023-02-28T06:04:23;12.75;;;4.85;;
25263;SDS011;13211;51.796;5.808;2023-02-28T06:06:57;13.05;;;5.85;;
25263;SDS011;13211;51.796;5.808;2023-02-28T06:09:25;11.05;;;5.30;;
25263;SDS011;13211;51.796;5.808;2023-02-28T06:11:53;8.45;;;4.88;;
25263;SDS011;13211;51.796;5.808;2023-02-28T06:14:24;12.18;;;5.00;;
25263;SDS011;13211;51.796;5.808;2023-02-28T06:16:52;16.35;;;5.82;;
25263;SDS011;13211;51.796;5.808;2023-02-28T06:19:24;7.82;;;4.78;;
25263;SDS011;13211;51.796;5.808;2023-02-28T06:21:52;10.90;;;5.18;;
25263;SDS011;13211;51.796;5.808;2023-02-28T06:24:21;9.23;;;5.60;;
25263;SDS011;13211;51.796;5.808;2023-02-28T06:26:49;8.50;;;4.90;;
25263;SDS011;13211;51.796;5.808;2023-02-28T06:29:18;9.10;;;5.15;;
25263;SDS011;13211;51.796;5.808;2023-02-28T06:31:50;14.20;;;5.45;;
25263;SDS011;13211;51.796;5.808;2023-02-28T06:34:18;12.73;;;5.22;;
25263;SDS011;13211;51.796;5.808;2023-02-28T06:36:47;7.13;;;4.50;;
25263;SDS011;13211;51.796;5.808;2023-02-28T06:39:18;12.70;;;4.53;;
25263;SDS011;13211;51.796;5.808;2023-02-28T06:41:46;11.18;;;4.90;;
25263;SDS011;13211;51.796;5.808;2023-02-28T06:44:22;10.20;;;4.95;;
25263;SDS011;13211;51.796;5.808;2023-02-28T06:46:51;10.90;;;5.18;;
25263;SDS011;13211;51.796;5.808;2023-02-28T06:49:19;12.20;;;4.75;;
25263;SDS011;13211;51.796;5.808;2023-02-28T06:51:48;20.27;;;4.68;;
25263;SDS011;13211;51.796;5.808;2023-02-28T06:54:16;20.00;;;5.57;;
25263;SDS011;13211;51.796;5.808;2023-02-28T06:56:44;11.43;;;4.93;;
25263;SDS011;13211;51.796;5.808;2023-02-28T06:59:13;7.60;;;4.70;;
25263;SDS011;13211;51.796;5.808;2023-02-28T07:01:41;8.95;;;4.88;;
25263;SDS011;13211;51.796;5.808;2023-02-28T07:04:08;10.15;;;4.72;;
25263;SDS011;13211;51.796;5.808;2023-02-28T07:06:36;12.13;;;5.30;;
25263;SDS011;13211;51.796;5.808;2023-02-28T07:09:04;10.43;;;5.32;;
25263;SDS011;13211;51.796;5.808;2023-02-28T07:11:32;12.02;;;4.68;;
25263;SDS011;13211;51.796;5.808;2023-02-28T07:13:59;8.98;;;5.00;;
25263;SDS011;13211;51.796;5.808;2023-02-28T07:16:28;9.23;;;5.10;;
25263;SDS011;13211;51.796;5.808;2023-02-28T07:18:57;11.75;;;5.38;;
25263;SDS011;13211;51.796;5.808;2023-02-28T07:21:24;10.02;;;5.20;;
25263;SDS011;13211;51.796;5.808;2023-02-28T07:23:52;12.70;;;4.95;;
25263;SDS011;13211;51.796;5.808;2023-02-28T07:26:21;10.70;;;5.38;;
25263;SDS011;13211;51.796;5.808;2023-02-28T07:28:50;9.50;;;5.18;;
25263;SDS011;13211;51.796;5.808;2023-02-28T07:31:19;12.48;;;5.38;;
25263;SDS011;13211;51.796;5.808;2023-02-28T07:33:48;12.18;;;5.35;;
25263;SDS011;13211;51.796;5.808;2023-02-28T07:36:18;9.25;;;4.47;;
25263;SDS011;13211;51.796;5.808;2023-02-28T07:38:48;9.73;;;4.45;;
25263;SDS011;13211;51.796;5.808;2023-02-28T07:41:20;9.13;;;4.00;;
25263;SDS011;13211;51.796;5.808;2023-02-28T07:43:53;8.00;;;3.58;;
25263;SDS011;13211;51.796;5.808;2023-02-28T07:46:22;7.63;;;3.55;;
25263;SDS011;13211;51.796;5.808;2023-02-28T07:48:51;5.30;;;3.40;;
25263;SDS011;13211;51.796;5.808;2023-02-28T07:53:48;4.97;;;2.85;;
25263;SDS011;13211;51.796;5.808;2023-02-28T07:56:18;4.88;;;2.75;;
25263;SDS011;13211;51.796;5.808;2023-02-28T07:58:47;6.38;;;2.80;;
25263;SDS011;13211;51.796;5.808;2023-02-28T08:01:14;5.75;;;2.50;;
25263;SDS011;13211;51.796;5.808;2023-02-28T08:03:42;3.72;;;2.28;;
25263;SDS011;13211;51.796;5.808;2023-02-28T08:06:15;5.65;;;2.45;;
25263;SDS011;13211;51.796;5.808;2023-02-28T08:08:42;5.88;;;2.60;;
25263;SDS011;13211;51.796;5.808;2023-02-28T08:11:11;5.97;;;2.63;;
25263;SDS011;13211;51.796;5.808;2023-02-28T08:13:38;9.27;;;2.28;;
25263;SDS011;13211;51.796;5.808;2023-02-28T08:16:07;2.67;;;2.10;;
25263;SDS011;13211;51.796;5.808;2023-02-28T08:18:35;3.90;;;2.47;;
25263;SDS011;13211;51.796;5.808;2023-02-28T08:21:07;5.47;;;2.10;;
25263;SDS011;13211;51.796;5.808;2023-02-28T08:23:35;3.78;;;2.15;;
25263;SDS011;13211;51.796;5.808;2023-02-28T08:26:03;5.90;;;2.50;;
25263;SDS011;13211;51.796;5.808;2023-02-28T08:28:31;3.63;;;2.30;;
25263;SDS011;13211;51.796;5.808;2023-02-28T08:30:59;3.78;;;2.03;;
25263;SDS011;13211;51.796;5.808;2023-02-28T08:33:27;6.72;;;2.50;;
25263;SDS011;13211;51.796;5.808;2023-02-28T08:35:55;5.40;;;2.30;;
25263;SDS011;13211;51.796;5.808;2023-02-28T08:38:23;5.88;;;2.05;;
25263;SDS011;13211;51.796;5.808;2023-02-28T08:40:57;3.80;;;2.28;;
25263;SDS011;13211;51.796;5.808;2023-02-28T08:43:25;3.97;;;2.10;;
25263;SDS011;13211;51.796;5.808;2023-02-28T08:45:53;3.83;;;2.08;;
25263;SDS011;13211;51.796;5.808;2023-02-28T08:48:23;4.70;;;2.15;;
25263;SDS011;13211;51.796;5.808;2023-02-28T08:50:55;3.58;;;2.20;;
25263;SDS011;13211;51.796;5.808;2023-02-28T08:53:33;4.13;;;2.40;;
25263;SDS011;13211;51.796;5.808;2023-02-28T08:56:03;5.88;;;2.60;;
25263;SDS011;13211;51.796;5.808;2023-02-28T08:58:31;3.90;;;2.00;;
25263;SDS011;13211;51.796;5.808;2023-02-28T09:00:58;3.60;;;2.22;;
25263;SDS011;13211;51.796;5.808;2023-02-28T09:03:26;4.03;;;2.33;;
25263;SDS011;13211;51.796;5.808;2023-02-28T09:05:59;4.25;;;2.50;;
25263;SDS011;13211;51.796;5.808;2023-02-28T09:08:27;4.97;;;2.13;;
25263;SDS011;13211;51.796;5.808;2023-02-28T09:10:55;4.10;;;2.30;;
25263;SDS011;13211;51.796;5.808;2023-02-28T09:13:25;6.18;;;2.47;;
25263;SDS011;13211;51.796;5.808;2023-02-28T09:15:54;8.48;;;2.67;;
25263;SDS011;13211;51.796;5.808;2023-02-28T09:20:52;6.05;;;2.40;;
25263;SDS011;13211;51.796;5.808;2023-02-28T09:23:20;4.55;;;2.60;;
25263;SDS011;13211;51.796;5.808;2023-02-28T09:25:52;3.72;;;2.70;;
25263;SDS011;13211;51.796;5.808;2023-02-28T09:28:20;3.60;;;2.03;;
25263;SDS011;13211;51.796;5.808;2023-02-28T09:30:50;3.35;;;2.10;;
25263;SDS011;13211;51.796;5.808;2023-02-28T09:33:19;2.13;;;1.70;;
25263;SDS011;13211;51.796;5.808;2023-02-28T09:35:48;2.67;;;1.90;;
25263;SDS011;13211;51.796;5.808;2023-02-28T09:38:16;4.05;;;1.95;;
25263;SDS011;13211;51.796;5.808;2023-02-28T09:40:58;4.50;;;2.03;;
25263;SDS011;13211;51.796;5.808;2023-02-28T09:43:28;3.80;;;1.75;;
25263;SDS011;13211;51.796;5.808;2023-02-28T09:48:46;3.42;;;1.60;;
25263;SDS011;13211;51.796;5.808;2023-02-28T09:51:25;2.80;;;1.50;;
25263;SDS011;13211;51.796;5.808;2023-02-28T09:53:55;6.03;;;1.85;;
25263;SDS011;13211;51.796;5.808;2023-02-28T09:56:30;2.33;;;1.40;;
25263;SDS011;13211;51.796;5.808;2023-02-28T10:06:49;3.83;;;1.70;;
25263;SDS011;13211;51.796;5.808;2023-02-28T10:09:26;2.80;;;1.63;;
25263;SDS011;13211;51.796;5.808;2023-02-28T10:11:56;3.53;;;1.58;;
25263;SDS011;13211;51.796;5.808;2023-02-28T10:14:25;2.70;;;1.60;;
25263;SDS011;13211;51.796;5.808;2023-02-28T10:16:56;3.03;;;1.90;;
25263;SDS011;13211;51.796;5.808;2023-02-28T10:24:39;3.57;;;2.03;;
25263;SDS011;13211;51.796;5.808;2023-02-28T10:27:16;4.13;;;1.70;;
25263;SDS011;13211;51.796;5.808;2023-02-28T10:30:02;3.75;;;1.80;;
25263;SDS011;13211;51.796;5.808;2023-02-28T10:32:31;3.88;;;1.77;;
25263;SDS011;13211;51.796;5.808;2023-02-28T10:37:27;3.33;;;1.60;;
25263;SDS011;13211;51.796;5.808;2023-02-28T10:39:55;5.03;;;1.90;;
25263;SDS011;13211;51.796;5.808;2023-02-28T10:45:09;4.18;;;1.73;;
25263;SDS011;13211;51.796;5.808;2023-02-28T10:47:40;4.40;;;1.60;;
25263;SDS011;13211;51.796;5.808;2023-02-28T10:50:30;2.90;;;1.48;;
25263;SDS011;13211;51.796;5.808;2023-02-28T10:55:55;2.97;;;1.48;;
25263;SDS011;13211;51.796;5.808;2023-02-28T10:58:25;2.47;;;1.30;;
25263;SDS011;13211;51.796;5.808;2023-02-28T11:00:53;2.83;;;1.63;;
25263;SDS011;13211;51.796;5.808;2023-02-28T11:03:31;3.97;;;1.65;;
25263;SDS011;13211;51.796;5.808;2023-02-28T11:06:07;2.65;;;1.50;;
25263;SDS011;13211;51.796;5.808;2023-02-28T11:08:37;4.85;;;1.40;;
25263;SDS011;13211;51.796;5.808;2023-02-28T11:11:11;2.08;;;1.50;;
25263;SDS011;13211;51.796;5.808;2023-02-28T11:13:39;1.83;;;1.35;;
25263;SDS011;13211;51.796;5.808;2023-02-28T11:16:09;2.85;;;1.48;;
25263;SDS011;13211;51.796;5.808;2023-02-28T11:21:19;3.70;;;1.50;;
25263;SDS011;13211;51.796;5.808;2023-02-28T11:23:49;2.50;;;1.40;;
25263;SDS011;13211;51.796;5.808;2023-02-28T11:26:41;2.05;;;1.23;;
25263;SDS011;13211;51.796;5.808;2023-02-28T11:29:27;2.50;;;1.63;;
25263;SDS011;13211;51.796;5.808;2023-02-28T11:34:36;2.40;;;1.52;;
25263;SDS011;13211;51.796;5.808;2023-02-28T11:37:05;2.50;;;1.70;;
25263;SDS011;13211;51.796;5.808;2023-02-28T11:39:33;2.92;;;1.40;;
25263;SDS011;13211;51.796;5.808;2023-02-28T11:52:22;2.92;;;1.70;;
25263;SDS011;13211;51.796;5.808;2023-02-28T11:54:59;2.45;;;1.60;;
25263;SDS011;13211;51.796;5.808;2023-02-28T12:00:03;8.18;;;1.80;;
25263;SDS011;13211;51.796;5.808;2023-02-28T12:05:29;2.92;;;1.65;;
25263;SDS011;13211;51.796;5.808;2023-02-28T12:10:57;2.40;;;1.48;;
25263;SDS011;13211;51.796;5.808;2023-02-28T12:24:00;5.53;;;1.98;;
25263;SDS011;13211;51.796;5.808;2023-02-28T12:26:32;2.38;;;1.95;;
25263;SDS011;13211;51.796;5.808;2023-02-28T12:29:10;5.13;;;1.90;;
25263;SDS011;13211;51.796;5.808;2023-02-28T12:31:41;4.05;;;1.65;;
25263;SDS011;13211;51.796;5.808;2023-02-28T12:34:13;4.88;;;1.95;;
25263;SDS011;13211;51.796;5.808;2023-02-28T12:36:43;2.60;;;1.63;;
25263;SDS011;13211;51.796;5.808;2023-02-28T12:39:13;3.83;;;1.70;;
25263;SDS011;13211;51.796;5.808;2023-02-28T12:41:44;3.88;;;1.90;;
25263;SDS011;13211;51.796;5.808;2023-02-28T12:44:17;3.97;;;2.00;;
25263;SDS011;13211;51.796;5.808;2023-02-28T12:46:52;3.78;;;1.77;;
25263;SDS011;13211;51.796;5.808;2023-02-28T12:49:23;3.05;;;1.85;;
25263;SDS011;13211;51.796;5.808;2023-02-28T12:51:51;3.90;;;1.70;;
25263;SDS011;13211;51.796;5.808;2023-02-28T12:54:22;3.65;;;1.80;;
25263;SDS011;13211;51.796;5.808;2023-02-28T13:04:59;3.50;;;1.50;;
25263;SDS011;13211;51.796;5.808;2023-02-28T13:07:49;3.83;;;1.70;;
25263;SDS011;13211;51.796;5.808;2023-02-28T13:10:22;3.90;;;2.00;;
25263;SDS011;13211;51.796;5.808;2023-02-28T13:12:51;5.10;;;2.53;;
25263;SDS011;13211;51.796;5.808;2023-02-28T13:15:22;5.70;;;2.05;;
25263;SDS011;13211;51.796;5.808;2023-02-28T13:17:53;3.53;;;2.13;;
25263;SDS011;13211;51.796;5.808;2023-02-28T13:20:34;6.05;;;2.25;;
25263;SDS011;13211;51.796;5.808;2023-02-28T13:23:03;5.03;;;2.28;;
25263;SDS011;13211;51.796;5.808;2023-02-28T13:28:10;5.13;;;2.40;;
25263;SDS011;13211;51.796;5.808;2023-02-28T13:38:35;4.30;;;1.90;;
25263;SDS011;13211;51.796;5.808;2023-02-28T13:47:23;3.78;;;1.40;;
25263;SDS011;13211;51.796;5.808;2023-02-28T13:49:27;3.70;;;1.80;;
25263;SDS011;13211;51.796;5.808;2023-02-28T13:54:34;4.18;;;1.80;;
25263;SDS011;13211;51.796;5.808;2023-02-28T14:05:21;4.63;;;1.60;;
25263;SDS011;13211;51.796;5.808;2023-02-28T14:07:54;6.57;;;2.13;;
25263;SDS011;13211;51.796;5.808;2023-02-28T14:10:25;5.45;;;2.10;;
25263;SDS011;13211;51.796;5.808;2023-02-28T14:18:02;4.50;;;1.80;;
25263;SDS011;13211;51.796;5.808;2023-02-28T14:20:31;4.28;;;2.05;;
25263;SDS011;13211;51.796;5.808;2023-02-28T14:23:06;7.47;;;2.28;;
25263;SDS011;13211;51.796;5.808;2023-02-28T14:38:24;4.85;;;2.13;;
25263;SDS011;13211;51.796;5.808;2023-02-28T14:40:53;4.65;;;2.17;;
25263;SDS011;13211;51.796;5.808;2023-02-28T14:43:26;5.30;;;2.08;;
25263;SDS011;13211;51.796;5.808;2023-02-28T14:45:58;5.43;;;2.25;;
25263;SDS011;13211;51.796;5.808;2023-02-28T14:48:26;5.18;;;2.22;;
25263;SDS011;13211;51.796;5.808;2023-02-28T14:50:58;3.10;;;1.90;;
25263;SDS011;13211;51.796;5.808;2023-02-28T14:53:30;5.00;;;2.00;;
25263;SDS011;13211;51.796;5.808;2023-02-28T14:56:02;4.47;;;1.98;;
25263;SDS011;13211;51.796;5.808;2023-02-28T14:58:31;4.18;;;2.35;;
25263;SDS011;13211;51.796;5.808;2023-02-28T15:01:00;3.83;;;1.80;;
25263;SDS011;13211;51.796;5.808;2023-02-28T15:03:34;5.85;;;1.63;;
25263;SDS011;13211;51.796;5.808;2023-02-28T15:06:04;3.17;;;1.80;;
25263;SDS011;13211;51.796;5.808;2023-02-28T15:08:33;3.67;;;1.85;;
25263;SDS011;13211;51.796;5.808;2023-02-28T15:11:05;3.08;;;1.90;;
25263;SDS011;13211;51.796;5.808;2023-02-28T15:13:39;4.65;;;1.92;;
25263;SDS011;13211;51.796;5.808;2023-02-28T15:16:10;4.70;;;2.30;;
25263;SDS011;13211;51.796;5.808;2023-02-28T15:18:59;6.18;;;1.80;;
25263;SDS011;13211;51.796;5.808;2023-02-28T15:21:29;3.28;;;1.88;;
25263;SDS011;13211;51.796;5.808;2023-02-28T15:24:03;4.22;;;1.80;;
25263;SDS011;13211;51.796;5.808;2023-02-28T15:26:32;4.55;;;2.03;;
25263;SDS011;13211;51.796;5.808;2023-02-28T15:29:03;5.35;;;2.42;;
25263;SDS011;13211;51.796;5.808;2023-02-28T15:31:33;2.30;;;1.67;;
25263;SDS011;13211;51.796;5.808;2023-02-28T15:34:27;3.15;;;1.90;;
25263;SDS011;13211;51.796;5.808;2023-02-28T15:39:55;4.68;;;2.10;;
25263;SDS011;13211;51.796;5.808;2023-02-28T15:42:23;5.45;;;2.40;;
25263;SDS011;13211;51.796;5.808;2023-02-28T15:44:57;4.88;;;2.20;;
25263;SDS011;13211;51.796;5.808;2023-02-28T15:47:27;3.88;;;2.17;;
25263;SDS011;13211;51.796;5.808;2023-02-28T15:52:42;3.05;;;1.80;;
25263;SDS011;13211;51.796;5.808;2023-02-28T15:55:31;3.67;;;2.45;;
25263;SDS011;13211;51.796;5.808;2023-02-28T15:58:00;2.45;;;1.83;;
25263;SDS011;13211;51.796;5.808;2023-02-28T16:00:29;3.55;;;2.05;;
25263;SDS011;13211;51.796;5.808;2023-02-28T16:02:59;3.38;;;2.10;;
25263;SDS011;13211;51.796;5.808;2023-02-28T16:05:29;5.95;;;2.28;;
25263;SDS011;13211;51.796;5.808;2023-02-28T16:08:00;4.00;;;2.25;;
25263;SDS011;13211;51.796;5.808;2023-02-28T16:10:29;4.25;;;2.20;;
25263;SDS011;13211;51.796;5.808;2023-02-28T16:12:57;3.53;;;2.15;;
25263;SDS011;13211;51.796;5.808;2023-02-28T16:15:26;2.78;;;2.13;;
25263;SDS011;13211;51.796;5.808;2023-02-28T16:17:55;3.87;;;2.17;;
25263;SDS011;13211;51.796;5.808;2023-02-28T16:22:52;5.65;;;2.20;;
25263;SDS011;13211;51.796;5.808;2023-02-28T16:25:20;2.85;;;2.17;;
25263;SDS011;13211;51.796;5.808;2023-02-28T16:27:51;5.00;;;2.30;;
25263;SDS011;13211;51.796;5.808;2023-02-28T16:30:24;3.53;;;2.40;;
25263;SDS011;13211;51.796;5.808;2023-02-28T16:32:53;3.30;;;2.40;;
25263;SDS011;13211;51.796;5.808;2023-02-28T16:35:22;7.68;;;2.50;;
25263;SDS011;13211;51.796;5.808;2023-02-28T16:37:51;3.95;;;2.30;;
25263;SDS011;13211;51.796;5.808;2023-02-28T16:40:20;4.35;;;2.67;;
25263;SDS011;13211;51.796;5.808;2023-02-28T16:42:50;3.22;;;2.15;;
25263;SDS011;13211;51.796;5.808;2023-02-28T16:45:20;4.35;;;2.40;;
25263;SDS011;13211;51.796;5.808;2023-02-28T16:50:21;4.45;;;2.28;;
25263;SDS011;13211;51.796;5.808;2023-02-28T16:52:49;4.35;;;2.40;;
25263;SDS011;13211;51.796;5.808;2023-02-28T16:55:19;6.05;;;2.90;;
25263;SDS011;13211;51.796;5.808;2023-02-28T16:57:53;4.72;;;2.50;;
25263;SDS011;13211;51.796;5.808;2023-02-28T17:00:22;4.00;;;2.30;;
25263;SDS011;13211;51.796;5.808;2023-02-28T17:02:51;4.03;;;2.28;;
25263;SDS011;13211;51.796;5.808;2023-02-28T17:05:19;4.88;;;2.35;;
25263;SDS011;13211;51.796;5.808;2023-02-28T17:07:48;3.63;;;2.50;;
25263;SDS011;13211;51.796;5.808;2023-02-28T17:12:46;4.55;;;2.67;;
25263;SDS011;13211;51.796;5.808;2023-02-28T17:15:18;6.05;;;2.58;;
25263;SDS011;13211;51.796;5.808;2023-02-28T17:17:48;3.53;;;2.30;;
25263;SDS011;13211;51.796;5.808;2023-02-28T17:20:21;5.25;;;2.60;;
25263;SDS011;13211;51.796;5.808;2023-02-28T17:22:53;3.92;;;2.40;;
25263;SDS011;13211;51.796;5.808;2023-02-28T17:25:23;4.60;;;2.58;;
25263;SDS011;13211;51.796;5.808;2023-02-28T17:27:51;5.63;;;2.70;;
25263;SDS011;13211;51.796;5.808;2023-02-28T17:30:20;6.35;;;2.78;;
25263;SDS011;13211;51.796;5.808;2023-02-28T17:32:49;9.50;;;2.70;;
25263;SDS011;13211;51.796;5.808;2023-02-28T17:35:22;6.57;;;2.80;;
25263;SDS011;13211;51.796;5.808;2023-02-28T17:37:52;5.38;;;2.85;;
25263;SDS011;13211;51.796;5.808;2023-02-28T17:40:21;6.30;;;2.80;;
25263;SDS011;13211;51.796;5.808;2023-02-28T17:42:49;4.97;;;3.07;;
25263;SDS011;13211;51.796;5.808;2023-02-28T17:45:19;5.35;;;3.28;;
25263;SDS011;13211;51.796;5.808;2023-02-28T17:47:49;7.57;;;2.97;;
25263;SDS011;13211;51.796;5.808;2023-02-28T17:50:19;5.90;;;2.67;;
25263;SDS011;13211;51.796;5.808;2023-02-28T17:55:21;4.57;;;2.83;;
25263;SDS011;13211;51.796;5.808;2023-02-28T17:57:49;8.60;;;3.28;;
25263;SDS011;13211;51.796;5.808;2023-02-28T18:00:18;8.95;;;3.38;;
25263;SDS011;13211;51.796;5.808;2023-02-28T18:02:47;5.80;;;3.33;;